createdAt,value
2023-11-30T00:01:16.644Z,95.33
2023-11-30T00:03:44.315Z,95.36
2023-11-30T00:06:11.877Z,95.13
2023-11-30T00:08:38.853Z,94.69
2023-11-30T00:11:08.903Z,94.42
2023-11-30T00:13:35.970Z,94.97
2023-11-30T00:16:02.965Z,94.30
2023-11-30T00:18:30.639Z,94.95
2023-11-30T00:20:57.704Z,96.01
2023-11-30T00:23:24.703Z,94.06
2023-11-30T00:25:51.687Z,94.54
2023-11-30T00:28:18.757Z,95.38
2023-11-30T00:30:46.009Z,94.79
2023-11-30T00:33:13.086Z,94.37
2023-11-30T00:35:40.067Z,94.63
2023-11-30T00:38:07.071Z,94.58
2023-11-30T00:40:34.153Z,95.06
2023-11-30T00:43:01.239Z,92.70
2023-11-30T00:45:28.254Z,92.74
2023-11-30T00:47:55.373Z,93.97
2023-11-30T00:50:22.565Z,94.31
2023-11-30T00:52:49.755Z,93.74
2023-11-30T00:55:16.930Z,94.22
2023-11-30T00:57:43.898Z,93.93
2023-11-30T01:00:11.873Z,94.25
2023-11-30T01:02:41.503Z,93.95
2023-11-30T01:05:09.519Z,94.27
2023-11-30T01:07:39.718Z,94.44
2023-11-30T01:10:07.929Z,95.35
2023-11-30T01:12:35.012Z,94.63
2023-11-30T01:15:02.408Z,95.30
2023-11-30T01:17:29.596Z,95.17
2023-11-30T01:19:56.664Z,94.79
2023-11-30T01:22:23.710Z,95.67
2023-11-30T01:24:50.808Z,95.86
2023-11-30T01:27:17.940Z,95.22
2023-11-30T01:29:45.186Z,94.08
2023-11-30T01:32:12.231Z,93.47
2023-11-30T01:34:39.586Z,94.38
2023-11-30T01:37:07.189Z,94.89
2023-11-30T01:39:34.157Z,94.83
2023-11-30T01:42:03.817Z,96.37
2023-11-30T01:44:33.180Z,96.01
2023-11-30T01:47:01.000Z,96.10
2023-11-30T01:49:28.225Z,96.75
2023-11-30T01:51:55.383Z,95.88
2023-11-30T01:54:22.496Z,95.97
2023-11-30T01:56:50.119Z,96.05
2023-11-30T01:59:17.885Z,95.75
2023-11-30T02:01:45.321Z,95.46
2023-11-30T02:04:17.011Z,95.90
2023-11-30T02:06:47.938Z,97.51
2023-11-30T02:09:15.305Z,98.06
2023-11-30T02:11:42.885Z,97.57
2023-11-30T02:14:09.881Z,97.96
2023-11-30T02:16:37.349Z,95.86
2023-11-30T02:19:04.485Z,96.11
2023-11-30T02:21:31.759Z,96.63
2023-11-30T02:23:58.773Z,97.24
2023-11-30T02:26:25.788Z,97.11
2023-11-30T02:28:53.007Z,98.27
2023-11-30T02:31:20.111Z,98.59
2023-11-30T02:33:47.222Z,98.36
2023-11-30T02:36:14.517Z,98.48
2023-11-30T02:38:41.583Z,99.24
2023-11-30T02:41:09.215Z,97.73
2023-11-30T02:43:36.213Z,97.59
2023-11-30T02:46:03.363Z,98.17
2023-11-30T02:48:30.455Z,97.61
2023-11-30T02:50:57.924Z,98.45
2023-11-30T02:53:25.010Z,98.67
2023-11-30T02:55:52.117Z,98.76
2023-11-30T02:58:19.225Z,98.79
2023-11-30T03:00:47.538Z,99.28
2023-11-30T03:03:14.803Z,100.00
2023-11-30T03:05:41.871Z,100.00
2023-11-30T03:08:08.890Z,100.00
2023-11-30T03:10:36.028Z,100.00
2023-11-30T03:13:03.105Z,100.00
2023-11-30T03:15:32.065Z,100.00
2023-11-30T03:17:59.190Z,100.00
2023-11-30T03:20:26.395Z,100.00
2023-11-30T03:22:53.447Z,100.00
2023-11-30T03:25:20.544Z,100.00
2023-11-30T03:27:47.582Z,100.00
2023-11-30T03:30:14.793Z,100.00
2023-11-30T03:32:41.969Z,100.00
2023-11-30T03:35:09.348Z,100.00
2023-11-30T03:37:41.446Z,100.00
2023-11-30T03:40:09.318Z,100.00
2023-11-30T03:42:36.489Z,100.00
2023-11-30T03:45:03.800Z,100.00
2023-11-30T03:47:30.892Z,100.00
2023-11-30T03:49:57.925Z,100.00
2023-11-30T03:52:25.094Z,100.00
2023-11-30T03:54:53.004Z,100.00
2023-11-30T03:57:20.142Z,100.00
2023-11-30T03:59:47.246Z,100.00
2023-11-30T04:02:14.296Z,100.00
2023-11-30T04:04:42.878Z,100.00
2023-11-30T04:07:09.988Z,100.00
2023-11-30T04:09:38.985Z,100.00
2023-11-30T04:12:06.575Z,100.00
2023-11-30T04:14:33.644Z,100.00
2023-11-30T04:17:04.290Z,100.00
2023-11-30T04:19:31.956Z,100.00
2023-11-30T04:21:59.013Z,100.00
2023-11-30T04:24:26.178Z,100.00
2023-11-30T04:26:54.816Z,100.00
2023-11-30T04:29:21.935Z,100.00
2023-11-30T04:31:51.496Z,100.00
2023-11-30T04:34:19.881Z,100.00
2023-11-30T04:36:47.641Z,100.00
2023-11-30T04:39:14.684Z,100.00
2023-11-30T04:41:42.233Z,100.00
2023-11-30T04:44:09.343Z,100.00
2023-11-30T04:46:36.808Z,100.00
2023-11-30T04:49:06.264Z,100.00
2023-11-30T04:51:34.012Z,100.00
2023-11-30T04:54:01.072Z,100.00
2023-11-30T04:56:28.343Z,100.00
2023-11-30T04:58:55.394Z,100.00
2023-11-30T05:01:22.509Z,100.00
2023-11-30T05:03:49.769Z,100.00
2023-11-30T05:06:17.031Z,100.00
2023-11-30T05:08:44.024Z,100.00
2023-11-30T05:11:11.111Z,100.00
2023-11-30T05:13:38.235Z,100.00
2023-11-30T05:16:06.078Z,100.00
2023-11-30T05:18:33.207Z,100.00
2023-11-30T05:21:00.868Z,100.00
2023-11-30T05:23:27.848Z,100.00
2023-11-30T05:25:54.941Z,100.00
2023-11-30T05:28:23.107Z,100.00
2023-11-30T05:30:50.585Z,100.00
2023-11-30T05:33:18.033Z,100.00
2023-11-30T05:35:45.520Z,100.00
2023-11-30T05:38:15.482Z,100.00
2023-11-30T05:40:42.713Z,100.00
2023-11-30T05:43:09.921Z,100.00
2023-11-30T05:45:37.061Z,100.00
2023-11-30T05:48:04.863Z,100.00
2023-11-30T05:50:31.899Z,100.00
2023-11-30T05:52:58.862Z,100.00
2023-11-30T05:55:26.862Z,100.00
2023-11-30T05:57:53.987Z,100.00
2023-11-30T06:00:23.264Z,100.00
2023-11-30T06:02:50.365Z,100.00
2023-11-30T06:05:18.479Z,100.00
2023-11-30T06:07:46.157Z,100.00
2023-11-30T06:10:15.213Z,100.00
2023-11-30T06:12:42.599Z,100.00
2023-11-30T06:15:11.068Z,100.00
2023-11-30T06:17:38.265Z,100.00
2023-11-30T06:20:08.795Z,100.00
2023-11-30T06:22:37.641Z,100.00
2023-11-30T06:25:06.729Z,100.00
2023-11-30T06:27:33.926Z,100.00
2023-11-30T06:30:01.129Z,100.00
2023-11-30T06:32:28.174Z,100.00
2023-11-30T06:34:55.192Z,100.00
2023-11-30T06:37:22.325Z,100.00
2023-11-30T06:39:49.447Z,100.00
2023-11-30T06:42:16.545Z,100.00
2023-11-30T06:44:46.550Z,100.00
2023-11-30T06:47:13.716Z,100.00
2023-11-30T06:49:40.774Z,100.00
2023-11-30T06:52:07.888Z,100.00
2023-11-30T06:54:34.906Z,100.00
2023-11-30T06:57:02.183Z,99.23
2023-11-30T06:59:31.309Z,98.52
2023-11-30T07:01:59.737Z,98.18
2023-11-30T07:04:29.492Z,97.80
2023-11-30T07:06:57.263Z,98.20
2023-11-30T07:09:24.287Z,97.03
2023-11-30T07:11:51.640Z,96.96
2023-11-30T07:14:18.674Z,97.51
2023-11-30T07:16:45.732Z,99.08
2023-11-30T07:19:14.658Z,98.68
2023-11-30T07:21:41.786Z,96.27
2023-11-30T07:24:11.529Z,94.61
2023-11-30T07:26:40.328Z,93.98
2023-11-30T07:29:07.452Z,93.42
2023-11-30T07:31:35.795Z,93.54
2023-11-30T07:34:04.244Z,92.91
2023-11-30T07:36:31.479Z,90.11
2023-11-30T07:38:58.704Z,88.71
2023-11-30T07:41:25.780Z,85.81
2023-11-30T07:43:52.895Z,85.37
2023-11-30T07:46:20.775Z,84.42
2023-11-30T07:48:48.115Z,81.75
2023-11-30T07:51:15.297Z,80.14
2023-11-30T07:53:42.434Z,79.41
2023-11-30T07:56:11.426Z,76.65
2023-11-30T07:58:38.616Z,75.94
2023-11-30T08:01:06.625Z,74.25
2023-11-30T08:03:34.379Z,72.30
2023-11-30T08:06:02.196Z,72.77
2023-11-30T08:08:29.353Z,69.77
2023-11-30T08:10:57.147Z,70.57
2023-11-30T08:13:25.490Z,66.17
2023-11-30T08:15:52.641Z,64.73
2023-11-30T08:18:25.516Z,65.96
2023-11-30T08:20:55.553Z,64.47
2023-11-30T08:23:23.340Z,66.12
2023-11-30T08:25:50.968Z,67.52
2023-11-30T08:28:18.206Z,68.28
2023-11-30T08:30:45.498Z,68.77
2023-11-30T08:33:13.037Z,67.35
2023-11-30T08:35:41.248Z,69.96
2023-11-30T08:38:10.453Z,69.21
2023-11-30T08:40:37.611Z,67.30
2023-11-30T08:43:04.774Z,65.61
2023-11-30T08:45:33.534Z,64.12
2023-11-30T08:48:00.768Z,61.76
2023-11-30T08:50:28.122Z,60.56
2023-11-30T08:52:55.164Z,59.64
2023-11-30T08:55:22.324Z,58.69
2023-11-30T08:57:49.965Z,58.68
2023-11-30T09:00:20.570Z,55.95
2023-11-30T09:02:49.643Z,57.67
2023-11-30T09:05:16.954Z,59.23
2023-11-30T09:07:44.067Z,59.68
2023-11-30T09:10:12.120Z,59.52
2023-11-30T09:12:39.440Z,58.31
2023-11-30T09:15:10.921Z,58.62
2023-11-30T09:17:38.099Z,60.31
2023-11-30T09:20:09.322Z,60.98
2023-11-30T09:22:37.072Z,60.38
2023-11-30T09:25:05.015Z,63.67
2023-11-30T09:27:37.310Z,66.14
2023-11-30T09:30:14.792Z,64.10
2023-11-30T09:32:45.156Z,64.48
2023-11-30T09:35:13.043Z,66.13
2023-11-30T09:37:40.478Z,66.70
2023-11-30T09:40:14.512Z,66.53
2023-11-30T09:42:42.120Z,66.33
2023-11-30T09:45:10.408Z,69.16
2023-11-30T09:47:38.134Z,69.65
2023-11-30T09:50:07.261Z,70.08
2023-11-30T09:52:36.085Z,69.43
2023-11-30T09:55:12.679Z,66.60
2023-11-30T09:57:42.232Z,64.94
2023-11-30T10:00:12.881Z,65.05
2023-11-30T10:02:40.143Z,65.07
2023-11-30T10:05:10.692Z,66.06
2023-11-30T10:07:39.675Z,66.91
2023-11-30T10:10:10.289Z,64.49
2023-11-30T10:12:37.475Z,63.35
2023-11-30T10:15:06.210Z,65.98
2023-11-30T10:17:33.549Z,64.03
2023-11-30T10:20:00.866Z,63.89
2023-11-30T10:22:28.074Z,62.92
2023-11-30T10:24:55.128Z,63.44
2023-11-30T10:27:25.579Z,63.30
2023-11-30T10:30:01.562Z,62.84
2023-11-30T10:32:28.776Z,60.93
2023-11-30T10:35:01.153Z,59.85
2023-11-30T10:37:34.410Z,57.94
2023-11-30T10:40:09.721Z,60.77
2023-11-30T10:42:37.575Z,57.29
2023-11-30T10:45:08.016Z,59.82
2023-11-30T10:47:40.959Z,60.99
2023-11-30T10:50:13.682Z,61.40
2023-11-30T10:52:44.768Z,59.97
2023-11-30T10:55:15.497Z,60.78
2023-11-30T10:57:45.304Z,57.12
2023-11-30T11:00:23.764Z,57.08
2023-11-30T11:02:52.345Z,55.71
2023-11-30T11:05:22.037Z,54.50
2023-11-30T11:07:52.670Z,54.87
2023-11-30T11:10:25.980Z,55.59
2023-11-30T11:12:54.020Z,55.12
2023-11-30T11:15:31.506Z,56.25
2023-11-30T11:18:07.318Z,57.00
2023-11-30T11:20:37.989Z,55.63
2023-11-30T11:23:05.152Z,52.58
2023-11-30T11:25:44.850Z,51.19
2023-11-30T11:28:12.941Z,52.50
2023-11-30T11:30:49.245Z,53.39
2023-11-30T11:33:19.152Z,53.42
2023-11-30T11:35:47.577Z,52.72
2023-11-30T11:38:15.171Z,53.17
2023-11-30T11:41:02.726Z,52.55
2023-11-30T11:43:30.007Z,52.75
2023-11-30T11:45:57.696Z,53.31
2023-11-30T11:48:25.116Z,55.13
2023-11-30T11:51:00.438Z,54.57
2023-11-30T11:53:28.026Z,54.16
2023-11-30T11:56:04.330Z,54.71
2023-11-30T11:58:31.772Z,54.40
2023-11-30T12:00:59.646Z,52.92
2023-11-30T12:03:33.329Z,49.99
2023-11-30T12:06:00.644Z,47.33
2023-11-30T12:08:31.929Z,47.40
2023-11-30T12:11:01.144Z,44.42
2023-11-30T12:13:30.312Z,44.00
2023-11-30T12:15:58.169Z,42.79
2023-11-30T12:18:28.599Z,43.24
2023-11-30T12:20:56.015Z,43.50
2023-11-30T12:23:24.790Z,43.31
2023-11-30T12:25:56.442Z,43.23
2023-11-30T12:28:25.281Z,43.24
2023-11-30T12:30:53.362Z,43.23
2023-11-30T12:33:22.929Z,42.28
2023-11-30T12:35:53.796Z,41.22
2023-11-30T12:38:21.514Z,40.87
2023-11-30T12:40:49.358Z,42.01
2023-11-30T12:43:18.663Z,42.64
2023-11-30T12:45:47.215Z,40.81
2023-11-30T12:48:16.319Z,40.59
2023-11-30T12:50:48.355Z,41.51
2023-11-30T12:53:18.918Z,41.66
2023-11-30T12:55:46.700Z,41.41
2023-11-30T12:58:14.187Z,41.55
2023-11-30T13:00:42.936Z,41.01
2023-11-30T13:03:10.619Z,40.70
2023-11-30T13:05:38.318Z,40.39
2023-11-30T13:08:06.600Z,41.89
2023-11-30T13:10:34.258Z,42.60
2023-11-30T13:13:02.811Z,42.75
2023-11-30T13:15:30.191Z,43.20
2023-11-30T13:17:57.490Z,44.01
2023-11-30T13:20:25.879Z,44.58
2023-11-30T13:22:53.519Z,44.95
2023-11-30T13:25:22.259Z,45.06
2023-11-30T13:27:51.141Z,45.76
2023-11-30T13:30:19.733Z,47.74
2023-11-30T13:32:47.924Z,48.09
2023-11-30T13:35:15.949Z,48.17
2023-11-30T13:37:43.417Z,47.62
2023-11-30T13:40:12.236Z,48.59
2023-11-30T13:42:42.280Z,49.38
2023-11-30T13:45:10.736Z,50.32
2023-11-30T13:47:49.077Z,51.65
2023-11-30T13:50:26.267Z,53.16
2023-11-30T13:53:03.524Z,54.37
2023-11-30T13:55:31.386Z,56.18
2023-11-30T13:58:00.527Z,56.45
2023-11-30T14:00:31.041Z,59.93
2023-11-30T14:03:01.325Z,61.85
2023-11-30T14:05:31.297Z,63.78
2023-11-30T14:08:01.902Z,67.37
2023-11-30T14:10:31.543Z,68.70
2023-11-30T14:15:42.183Z,69.10
2023-11-30T14:18:12.290Z,69.53
2023-11-30T14:20:42.143Z,69.49
2023-11-30T14:23:10.235Z,71.10
2023-11-30T14:25:41.574Z,71.78
2023-11-30T14:28:13.528Z,72.16
2023-11-30T14:30:42.040Z,72.75
2023-11-30T14:33:13.189Z,73.50
2023-11-30T14:35:41.869Z,74.33
2023-11-30T14:38:09.377Z,76.16
2023-11-30T14:40:37.161Z,75.71
2023-11-30T14:43:04.388Z,75.99
2023-11-30T14:45:32.588Z,76.54
2023-11-30T14:48:03.065Z,77.07
2023-11-30T14:50:39.024Z,76.72
2023-11-30T14:53:07.594Z,78.15
2023-11-30T14:55:39.618Z,77.19
2023-11-30T14:58:08.429Z,78.28
2023-11-30T15:00:39.643Z,79.25
2023-11-30T15:03:10.791Z,79.74
2023-11-30T15:05:40.169Z,80.73
2023-11-30T15:08:08.236Z,81.14
2023-11-30T15:10:38.735Z,81.70
2023-11-30T15:13:05.995Z,82.77
2023-11-30T15:15:34.101Z,82.96
2023-11-30T15:18:01.854Z,81.90
2023-11-30T15:20:31.096Z,83.34
2023-11-30T15:22:58.521Z,82.58
2023-11-30T15:25:27.339Z,82.94
2023-11-30T15:27:54.684Z,83.25
2023-11-30T15:30:22.285Z,83.39
2023-11-30T15:32:49.528Z,84.95
2023-11-30T15:35:17.043Z,85.32
2023-11-30T15:37:51.220Z,86.88
2023-11-30T15:40:20.829Z,86.97
2023-11-30T15:42:51.936Z,86.78
2023-11-30T15:45:23.512Z,87.66
2023-11-30T15:47:52.621Z,88.52
2023-11-30T15:50:23.329Z,88.19
2023-11-30T15:52:52.615Z,87.70
2023-11-30T15:55:20.489Z,89.08
2023-11-30T15:57:48.104Z,90.21
2023-11-30T16:00:16.223Z,91.23
2023-11-30T16:02:46.766Z,91.26
2023-11-30T16:05:15.146Z,92.07
2023-11-30T16:07:43.176Z,92.93
2023-11-30T16:10:11.388Z,93.07
2023-11-30T16:12:39.297Z,93.69
2023-11-30T16:15:10.937Z,93.59
2023-11-30T16:17:39.736Z,94.08
2023-11-30T16:20:13.274Z,93.65
2023-11-30T16:22:46.789Z,93.63
2023-11-30T16:25:16.526Z,93.85
2023-11-30T16:27:44.225Z,95.07
2023-11-30T16:30:17.604Z,95.80
2023-11-30T16:32:45.922Z,96.53
2023-11-30T16:35:14.817Z,96.85
2023-11-30T16:37:42.251Z,96.90
2023-11-30T16:40:12.369Z,95.91
2023-11-30T16:42:43.541Z,96.69
2023-11-30T16:45:11.119Z,95.91
2023-11-30T16:47:39.456Z,96.36
2023-11-30T16:50:14.916Z,97.33
2023-11-30T16:52:49.315Z,96.91
2023-11-30T16:55:20.834Z,97.54
2023-11-30T16:57:49.759Z,97.85
2023-11-30T17:00:20.055Z,98.10
2023-11-30T17:02:51.439Z,97.60
2023-11-30T17:05:19.998Z,97.98
2023-11-30T17:07:47.333Z,98.02
2023-11-30T17:10:17.573Z,98.49
2023-11-30T17:12:47.992Z,98.12
2023-11-30T17:15:19.452Z,98.82
2023-11-30T17:17:50.578Z,99.72
2023-11-30T17:20:21.148Z,99.97
2023-11-30T17:22:50.931Z,99.07
2023-11-30T17:25:19.986Z,98.39
2023-11-30T17:27:48.673Z,98.92
2023-11-30T17:30:17.991Z,100.00
2023-11-30T17:32:46.372Z,100.00
2023-11-30T17:35:15.536Z,100.00
2023-11-30T17:37:46.353Z,100.00
2023-11-30T17:40:14.189Z,100.00
2023-11-30T17:42:42.202Z,100.00
2023-11-30T17:45:11.374Z,100.00
2023-11-30T17:47:41.480Z,100.00
2023-11-30T17:50:14.123Z,100.00
2023-11-30T17:52:42.181Z,100.00
2023-11-30T17:55:10.094Z,100.00
2023-11-30T17:57:39.273Z,99.68
2023-11-30T18:00:07.976Z,99.94
2023-11-30T18:03:04.650Z,97.88
2023-11-30T18:05:33.808Z,98.73
2023-11-30T18:08:02.194Z,99.44
2023-11-30T18:10:35.341Z,99.76
2023-11-30T18:13:05.576Z,98.91
2023-11-30T18:15:35.592Z,98.69
2023-11-30T18:18:03.395Z,98.46
2023-11-30T18:20:34.358Z,99.14
2023-11-30T18:23:03.669Z,99.74
2023-11-30T18:25:32.624Z,99.32
2023-11-30T18:28:00.623Z,98.67
2023-11-30T18:30:31.662Z,99.02
2023-11-30T18:33:03.483Z,99.87
2023-11-30T18:35:34.730Z,100.00
2023-11-30T18:38:05.301Z,100.00
2023-11-30T18:40:35.583Z,100.00
2023-11-30T18:43:25.402Z,100.00
2023-11-30T18:45:59.143Z,100.00
2023-11-30T18:48:30.580Z,100.00
2023-11-30T18:51:01.210Z,100.00
2023-11-30T18:53:37.352Z,100.00
2023-11-30T18:56:06.049Z,100.00
2023-11-30T18:58:35.189Z,100.00
2023-11-30T19:01:04.555Z,100.00
2023-11-30T19:03:34.270Z,100.00
2023-11-30T19:06:03.835Z,100.00
2023-11-30T19:08:32.921Z,100.00
2023-11-30T19:11:03.012Z,100.00
2023-11-30T19:13:36.372Z,100.00
2023-11-30T19:16:05.996Z,100.00
2023-11-30T19:18:35.132Z,100.00
2023-11-30T19:21:06.482Z,100.00
2023-11-30T19:23:37.469Z,100.00
2023-11-30T19:26:13.826Z,100.00
2023-11-30T19:28:43.079Z,100.00
2023-11-30T19:31:11.780Z,100.00
2023-11-30T19:33:45.616Z,100.00
2023-11-30T19:36:17.881Z,100.00
2023-11-30T19:38:50.966Z,100.00
2023-11-30T19:41:24.389Z,100.00
2023-11-30T19:43:58.291Z,100.00
2023-11-30T19:46:30.755Z,100.00
2023-11-30T19:49:00.948Z,100.00
2023-11-30T19:51:34.060Z,100.00
2023-11-30T19:54:09.199Z,100.00
2023-11-30T19:56:46.198Z,100.00
2023-11-30T19:59:15.316Z,100.00
2023-11-30T20:01:45.026Z,100.00
2023-11-30T20:04:13.757Z,100.00
2023-11-30T20:06:45.045Z,100.00
2023-11-30T20:09:38.354Z,100.00
2023-11-30T20:12:13.060Z,100.00
2023-11-30T20:14:44.917Z,100.00
2023-11-30T20:17:13.597Z,100.00
2023-11-30T20:19:44.134Z,100.00
2023-11-30T20:22:12.962Z,100.00
2023-11-30T20:24:40.687Z,100.00
2023-11-30T20:27:09.401Z,100.00
2023-11-30T20:29:36.880Z,100.00
2023-11-30T20:32:04.935Z,100.00
2023-11-30T20:34:40.566Z,100.00
2023-11-30T20:37:09.159Z,100.00
2023-11-30T20:39:37.186Z,100.00
2023-11-30T20:42:08.739Z,100.00
2023-11-30T20:44:37.365Z,100.00
2023-11-30T20:47:05.918Z,100.00
2023-11-30T20:49:33.998Z,100.00
2023-11-30T20:52:04.325Z,100.00
2023-11-30T20:54:35.616Z,98.06
2023-11-30T20:57:03.511Z,100.00
2023-11-30T20:59:34.746Z,100.00
2023-11-30T21:02:02.548Z,100.00
2023-11-30T21:04:30.476Z,100.00
2023-11-30T21:07:03.969Z,100.00
2023-11-30T21:09:33.358Z,100.00
2023-11-30T21:12:04.187Z,100.00
2023-11-30T21:14:33.870Z,100.00
2023-11-30T21:17:06.997Z,100.00
2023-11-30T21:19:54.178Z,100.00
2023-11-30T21:22:21.468Z,100.00
2023-11-30T21:24:48.781Z,100.00
2023-11-30T21:27:20.441Z,100.00
2023-11-30T21:29:50.994Z,100.00
2023-11-30T21:32:18.384Z,100.00
2023-11-30T21:34:51.242Z,100.00
2023-11-30T21:37:18.710Z,100.00
2023-11-30T21:39:47.245Z,100.00
2023-11-30T21:42:15.724Z,100.00
2023-11-30T21:44:47.108Z,100.00
2023-11-30T21:47:14.418Z,100.00
2023-11-30T21:49:49.366Z,100.00
2023-11-30T21:52:20.936Z,100.00
2023-11-30T21:54:48.943Z,100.00
2023-11-30T21:57:19.034Z,100.00
2023-11-30T21:59:46.367Z,100.00
2023-11-30T22:02:13.653Z,100.00
2023-11-30T22:04:41.880Z,100.00
2023-11-30T22:07:09.448Z,100.00
2023-11-30T22:09:39.113Z,100.00
2023-11-30T22:12:08.145Z,100.00
2023-11-30T22:14:38.107Z,100.00
2023-11-30T22:17:05.833Z,100.00
2023-11-30T22:19:33.474Z,100.00
2023-11-30T22:22:01.692Z,100.00
2023-11-30T22:24:29.794Z,100.00
2023-11-30T22:26:57.507Z,100.00
2023-11-30T22:29:24.710Z,100.00
2023-11-30T22:31:54.307Z,100.00
2023-11-30T22:34:21.745Z,100.00
2023-11-30T22:36:49.401Z,100.00
2023-11-30T22:39:18.070Z,100.00
2023-11-30T22:41:46.454Z,100.00
2023-11-30T22:44:18.577Z,100.00
2023-11-30T22:46:47.062Z,100.00
2023-11-30T22:49:17.733Z,100.00
2023-11-30T22:51:54.195Z,100.00
2023-11-30T22:54:23.916Z,100.00
2023-11-30T22:56:57.972Z,100.00
2023-11-30T22:59:25.370Z,100.00
2023-11-30T23:01:55.167Z,100.00
2023-11-30T23:04:26.722Z,100.00
2023-11-30T23:06:54.573Z,100.00
2023-11-30T23:09:21.959Z,100.00
2023-11-30T23:11:49.226Z,100.00
2023-11-30T23:14:16.623Z,100.00
2023-11-30T23:16:44.759Z,100.00
2023-11-30T23:19:12.313Z,100.00
2023-11-30T23:21:40.702Z,100.00
2023-11-30T23:24:08.914Z,100.00
2023-11-30T23:26:37.641Z,100.00
2023-11-30T23:29:05.491Z,100.00
2023-11-30T23:31:34.438Z,100.00
2023-11-30T23:34:04.653Z,100.00
2023-11-30T23:36:32.322Z,100.00
2023-11-30T23:39:04.078Z,100.00
2023-11-30T23:41:32.803Z,100.00
2023-11-30T23:44:00.778Z,100.00
2023-11-30T23:46:30.425Z,100.00
2023-11-30T23:48:59.145Z,100.00
2023-11-30T23:51:26.462Z,100.00
2023-11-30T23:53:53.704Z,100.00
2023-11-30T23:56:20.845Z,100.00
2023-11-30T23:58:48.080Z,100.00
